DTTJ Airport Information

Runway Information
Runway 09 Length 10171 ft width 148 ft
Elevation 9 ft Threshold 0 ft Heading 88
Runway 27 Length 10171 ft Width 148 ft
Elevation 18 ft Threshold 0 ft Heading 268
Airport Frequencies
Type APP Name DJERBA APP Frequency 120.3 MHZ
Type TWR Name DJERBA TWR Frequency 118.15 MHZ
Airport Navaids
Type VOR-DME Name Djerba Frequency 112200 KHZ
Airport Weather Information & NOTAM
ADDS - METARS form results

(0603 UTC 16 September 2019)
Data provider http://aviationweather.gov/metar/data/
 
METAR text: DTTJ 160530Z 14004KT CAVOK 21/17 Q1019
Conditions at: DTTJ (DJERBA MELLITA , TN) observed 0530 UTC 16 September 2019
Temperature: 21.0°C (70°F)
Dewpoint: 17.0°C (63°F) [RH = 78%]
Pressure (altimeter): 30.09 inches Hg (1019.0 mb)
Winds: from the SE (140 degrees) at 5 MPH (4 knots; 2.1 m/s)
Visibility: 6 or more miles (10+ km)
Ceiling: ceiling and visibility are OK
Clouds: unknown
Weather: no significant weather observed at this time

Forecast for: DTTJ (DJERBA MELLITA , TN)
Text: TAF DTTJ 160500Z 1606/1706 15004KT 9999 SCT023
Forecast period: 0600 UTC 16 September 2019 to 0600 UTC 17 September 2019
Forecast type: FROM: standard forecast or significant change
Winds: from the SSE (150 degrees) at 5 MPH (4 knots; 2.1 m/s)
Visibility: 6 or more miles 10+ km)
Ceiling: at least 12,000 feet AGL
Clouds: scattered clouds at 2300 feet AGL
Weather: no significant weather forecast for this period